createdAt,value
2019-04-25T00:02:28.723Z,10.30
2019-04-25T00:04:57.406Z,10.33
2019-04-25T00:07:26.721Z,10.38
2019-04-25T00:09:55.877Z,10.38
2019-04-25T00:12:25.075Z,10.38
2019-04-25T00:14:57.417Z,10.37
2019-04-25T00:17:27.033Z,10.40
2019-04-25T00:19:55.705Z,10.31
2019-04-25T00:22:31.802Z,10.39
2019-04-25T00:25:25.889Z,10.31
2019-04-25T00:27:54.824Z,10.36
2019-04-25T00:30:25.966Z,10.36
2019-04-25T00:32:54.916Z,10.40
2019-04-25T00:35:23.870Z,10.36
2019-04-25T00:37:53.391Z,10.26
2019-04-25T00:40:22.172Z,10.19
2019-04-25T00:42:53.448Z,10.07
2019-04-25T00:45:22.283Z,8.58
2019-04-25T00:47:51.849Z,10.09
2019-04-25T00:50:21.973Z,10.14
2019-04-25T00:52:52.185Z,10.13
2019-04-25T00:55:28.383Z,10.10
2019-04-25T00:57:54.444Z,10.18
2019-04-25T01:01:02.020Z,10.18
2019-04-25T01:03:31.808Z,10.13
2019-04-25T01:06:03.468Z,9.99
2019-04-25T01:08:31.954Z,9.90
2019-04-25T01:11:01.648Z,9.89
2019-04-25T01:13:32.108Z,9.95
2019-04-25T01:16:03.814Z,9.95
2019-04-25T01:18:31.602Z,10.02
2019-04-25T01:21:00.987Z,10.03
2019-04-25T01:23:33.569Z,10.12
2019-04-25T01:26:03.315Z,10.22
2019-04-25T01:28:33.579Z,10.20
2019-04-25T01:31:04.533Z,10.01
2019-04-25T01:33:35.615Z,9.94
2019-04-25T01:36:13.265Z,10.10
2019-04-25T01:38:59.584Z,10.30
2019-04-25T01:41:42.103Z,10.14
2019-04-25T01:44:19.760Z,9.75
2019-04-25T01:46:48.615Z,9.92
2019-04-25T01:49:17.293Z,9.68
2019-04-25T01:51:45.974Z,9.67
2019-04-25T01:54:14.732Z,9.47
2019-04-25T01:56:44.269Z,9.44
2019-04-25T01:59:13.776Z,9.36
2019-04-25T02:01:44.092Z,9.40
2019-04-25T02:04:13.371Z,9.39
2019-04-25T02:06:43.405Z,9.41
2019-04-25T02:09:14.024Z,9.32
2019-04-25T02:11:55.616Z,9.37
2019-04-25T02:14:25.731Z,9.31
2019-04-25T02:16:55.897Z,9.23
2019-04-25T02:19:25.247Z,9.22
2019-04-25T02:21:55.325Z,9.23
2019-04-25T02:24:24.470Z,9.25
2019-04-25T02:26:54.816Z,9.27
2019-04-25T02:29:23.604Z,9.20
2019-04-25T02:31:54.689Z,9.13
2019-04-25T02:34:25.020Z,9.27
2019-04-25T02:36:58.896Z,9.13
2019-04-25T02:39:24.686Z,9.04
2019-04-25T02:41:56.008Z,8.93
2019-04-25T02:44:24.811Z,8.80
2019-04-25T02:47:07.884Z,8.91
2019-04-25T02:49:41.317Z,8.88
2019-04-25T02:52:17.777Z,8.93
2019-04-25T02:54:45.385Z,8.92
2019-04-25T02:57:14.668Z,9.01
2019-04-25T02:59:45.081Z,9.03
2019-04-25T03:02:15.439Z,9.01
2019-04-25T03:04:44.704Z,9.05
2019-04-25T03:07:16.832Z,9.00
2019-04-25T03:09:45.051Z,9.06
2019-04-25T03:12:26.801Z,8.99
2019-04-25T03:14:44.997Z,8.90
2019-04-25T03:17:17.069Z,8.86
2019-04-25T03:20:06.650Z,8.90
2019-04-25T03:22:34.388Z,8.92
2019-04-25T03:25:06.834Z,8.95
2019-04-25T03:27:34.341Z,8.93
2019-04-25T03:30:04.427Z,8.99
2019-04-25T03:32:35.591Z,8.94
2019-04-25T03:35:05.897Z,9.00
2019-04-25T03:37:35.642Z,9.07
2019-04-25T03:40:06.491Z,9.13
2019-04-25T03:42:35.396Z,9.30
2019-04-25T03:45:05.050Z,9.29
2019-04-25T03:47:34.762Z,9.48
2019-04-25T03:50:05.853Z,9.56
2019-04-25T03:52:34.926Z,9.32
2019-04-25T03:55:05.078Z,9.16
2019-04-25T03:57:34.834Z,9.07
2019-04-25T04:00:06.176Z,9.06
2019-04-25T04:02:34.563Z,8.98
2019-04-25T04:05:04.863Z,8.81
2019-04-25T04:07:34.253Z,8.89
2019-04-25T04:10:04.565Z,8.95
2019-04-25T04:12:33.969Z,8.93
2019-04-25T04:15:05.608Z,8.83
2019-04-25T04:17:48.752Z,8.81
2019-04-25T04:20:39.830Z,8.96
2019-04-25T04:23:14.383Z,8.93
2019-04-25T04:25:43.337Z,8.92
2019-04-25T04:28:13.782Z,8.91
2019-04-25T04:30:43.609Z,8.87
2019-04-25T04:33:26.801Z,8.89
2019-04-25T04:35:44.204Z,8.91
2019-04-25T04:38:14.420Z,8.89
2019-04-25T04:40:44.209Z,8.88
2019-04-25T04:43:15.294Z,8.89
2019-04-25T04:45:45.651Z,8.83
2019-04-25T04:48:15.550Z,8.91
2019-04-25T04:50:44.393Z,8.87
2019-04-25T04:53:15.662Z,8.87
2019-04-25T04:55:43.817Z,9.04
2019-04-25T04:58:14.338Z,9.07
2019-04-25T05:00:43.766Z,9.08
2019-04-25T05:03:37.986Z,9.13
2019-04-25T05:06:37.900Z,9.11
2019-04-25T05:09:15.252Z,9.17
2019-04-25T05:11:44.611Z,9.17
2019-04-25T05:14:14.907Z,9.21
2019-04-25T05:16:44.303Z,9.40
2019-04-25T05:19:15.476Z,9.43
2019-04-25T05:21:45.614Z,9.43
2019-04-25T05:24:16.039Z,9.54
2019-04-25T05:26:44.912Z,9.60
2019-04-25T05:29:16.265Z,9.73
2019-04-25T05:31:47.326Z,9.72
2019-04-25T05:34:16.886Z,9.67
2019-04-25T05:36:45.689Z,9.65
2019-04-25T05:39:16.711Z,9.70
2019-04-25T05:42:05.220Z,9.70
2019-04-25T05:44:34.724Z,9.73
2019-04-25T05:47:05.336Z,9.74
2019-04-25T05:49:34.257Z,9.88
2019-04-25T05:52:04.016Z,9.84
2019-04-25T05:54:34.351Z,9.93
2019-04-25T05:57:03.696Z,9.98
2019-04-25T05:59:33.734Z,10.05
2019-04-25T06:02:03.929Z,10.16
2019-04-25T06:04:33.589Z,10.23
2019-04-25T06:07:02.776Z,10.34
2019-04-25T06:09:54.448Z,10.43
2019-04-25T06:12:49.102Z,10.61
2019-04-25T06:15:20.124Z,10.66
2019-04-25T06:18:14.387Z,10.71
2019-04-25T06:20:44.290Z,10.87
2019-04-25T06:23:19.249Z,10.89
2019-04-25T06:25:48.258Z,10.60
2019-04-25T06:28:20.258Z,10.97
2019-04-25T06:30:48.146Z,11.05
2019-04-25T06:33:16.820Z,11.18
2019-04-25T06:35:45.771Z,11.41
2019-04-25T06:38:14.469Z,11.45
2019-04-25T06:40:43.831Z,11.61
2019-04-25T06:43:13.483Z,11.60
2019-04-25T06:45:56.271Z,11.69
2019-04-25T06:48:45.555Z,11.71
2019-04-25T06:51:14.607Z,11.71
2019-04-25T06:53:45.737Z,11.68
2019-04-25T06:56:14.566Z,11.89
2019-04-25T06:58:44.042Z,11.89
2019-04-25T07:01:13.602Z,11.93
2019-04-25T07:03:44.074Z,12.19
2019-04-25T07:06:14.570Z,12.19
2019-04-25T07:08:44.738Z,12.42
2019-04-25T07:11:14.073Z,12.42
2019-04-25T07:13:43.838Z,12.51
2019-04-25T07:16:13.410Z,12.72
2019-04-25T07:18:43.613Z,12.78
2019-04-25T07:21:14.084Z,12.88
2019-04-25T07:23:45.994Z,12.94
2019-04-25T07:26:28.173Z,13.08
2019-04-25T07:29:05.434Z,13.22
2019-04-25T07:31:58.131Z,13.26
2019-04-25T07:34:27.435Z,13.39
2019-04-25T07:36:56.265Z,13.50
2019-04-25T07:39:25.621Z,13.61
2019-04-25T07:41:54.557Z,13.75
2019-04-25T07:44:36.671Z,13.78
2019-04-25T07:46:54.477Z,13.79
2019-04-25T07:49:23.500Z,13.82
2019-04-25T07:51:53.658Z,13.86
2019-04-25T07:54:24.163Z,14.01
2019-04-25T07:56:54.810Z,14.02
2019-04-25T07:59:23.793Z,13.48
2019-04-25T08:01:53.542Z,14.04
2019-04-25T08:04:23.613Z,14.05
2019-04-25T08:06:54.179Z,14.08
2019-04-25T08:09:24.310Z,14.12
2019-04-25T08:11:56.337Z,14.37
2019-04-25T08:14:38.840Z,14.60
2019-04-25T08:17:07.012Z,14.66
2019-04-25T08:19:35.797Z,14.63
2019-04-25T08:22:04.896Z,14.61
2019-04-25T08:24:35.917Z,14.54
2019-04-25T08:27:05.283Z,14.71
2019-04-25T08:29:37.293Z,14.95
2019-04-25T08:32:05.060Z,15.17
2019-04-25T08:34:34.819Z,15.19
2019-04-25T08:37:17.127Z,15.19
2019-04-25T08:39:37.767Z,15.15
2019-04-25T08:42:07.909Z,15.34
2019-04-25T08:44:36.914Z,15.26
2019-04-25T08:47:05.870Z,15.31
2019-04-25T08:49:56.652Z,15.16
2019-04-25T08:52:25.603Z,15.08
2019-04-25T08:54:59.280Z,15.01
2019-04-25T08:57:46.176Z,14.90
2019-04-25T09:00:44.591Z,14.83
2019-04-25T09:03:16.369Z,14.94
2019-04-25T09:05:47.243Z,15.10
2019-04-25T09:08:15.910Z,15.05
2019-04-25T09:10:44.958Z,15.12
2019-04-25T09:13:13.833Z,15.30
2019-04-25T09:15:45.283Z,15.44
2019-04-25T09:18:14.124Z,15.62
2019-04-25T09:20:45.878Z,15.97
2019-04-25T09:23:13.675Z,15.92
2019-04-25T09:25:44.644Z,15.98
2019-04-25T09:28:14.235Z,15.96
2019-04-25T09:30:44.827Z,15.89
2019-04-25T09:33:13.643Z,15.83
2019-04-25T09:35:42.404Z,16.12
2019-04-25T09:38:11.118Z,16.31
2019-04-25T09:40:41.891Z,16.49
2019-04-25T09:43:10.618Z,16.72
2019-04-25T09:45:55.356Z,16.62
2019-04-25T09:48:52.032Z,16.75
2019-04-25T09:51:25.106Z,16.83
2019-04-25T09:54:00.189Z,16.81
2019-04-25T09:56:36.616Z,16.76
2019-04-25T09:59:27.953Z,16.72
2019-04-25T10:01:55.164Z,16.85
2019-04-25T10:04:26.808Z,16.68
2019-04-25T10:06:55.659Z,16.71
2019-04-25T10:09:24.475Z,16.65
2019-04-25T10:11:54.635Z,16.65
2019-04-25T10:15:04.314Z,16.82
2019-04-25T10:17:33.890Z,17.19
2019-04-25T10:20:02.633Z,17.40
2019-04-25T10:22:31.420Z,17.53
2019-04-25T10:25:00.789Z,17.56
2019-04-25T10:27:29.667Z,17.60
2019-04-25T10:29:58.458Z,17.54
2019-04-25T10:32:28.091Z,17.67
2019-04-25T10:34:56.998Z,17.73
2019-04-25T10:37:25.858Z,17.86
2019-04-25T10:39:55.677Z,17.88
2019-04-25T10:42:24.871Z,18.07
2019-04-25T10:45:00.262Z,17.97
2019-04-25T10:47:29.997Z,17.84
2019-04-25T10:49:59.286Z,18.04
2019-04-25T10:52:28.485Z,18.27
2019-04-25T10:54:57.517Z,18.26
2019-04-25T10:57:27.084Z,18.20
2019-04-25T11:00:06.140Z,18.08
2019-04-25T11:02:29.884Z,17.95
2019-04-25T11:05:05.056Z,17.90
2019-04-25T11:07:34.037Z,17.97
2019-04-25T11:10:03.590Z,18.07
2019-04-25T11:12:33.802Z,18.14
2019-04-25T11:15:04.062Z,18.27
2019-04-25T11:17:33.904Z,18.39
2019-04-25T11:20:03.697Z,18.42
2019-04-25T11:22:34.220Z,18.48
2019-04-25T11:25:02.996Z,18.69
2019-04-25T11:27:31.822Z,18.91
2019-04-25T11:30:09.260Z,19.01
2019-04-25T11:32:33.812Z,19.19
2019-04-25T11:35:05.073Z,19.42
2019-04-25T11:37:34.292Z,19.57
2019-04-25T11:40:14.467Z,19.37
2019-04-25T11:42:45.917Z,19.24
2019-04-25T11:45:14.519Z,19.23
2019-04-25T11:47:45.945Z,19.33
2019-04-25T11:50:14.769Z,19.56
2019-04-25T11:52:43.802Z,19.51
2019-04-25T11:55:14.304Z,19.46
2019-04-25T11:57:47.336Z,19.59
2019-04-25T12:00:22.002Z,19.68
2019-04-25T12:02:45.387Z,19.88
2019-04-25T12:05:15.158Z,20.26
2019-04-25T12:07:45.333Z,20.43
2019-04-25T12:10:16.719Z,20.37
2019-04-25T12:12:47.260Z,20.27
2019-04-25T12:15:16.499Z,20.21
2019-04-25T12:17:45.310Z,19.93
2019-04-25T12:20:14.509Z,19.81
2019-04-25T12:22:45.388Z,19.86
2019-04-25T12:25:15.052Z,19.83
2019-04-25T12:27:45.494Z,19.97
2019-04-25T12:30:15.136Z,20.10
2019-04-25T12:32:44.235Z,20.11
2019-04-25T12:35:14.254Z,20.36
2019-04-25T12:37:44.217Z,20.85
2019-04-25T12:40:14.102Z,21.11
2019-04-25T12:42:44.468Z,21.21
2019-04-25T12:45:21.147Z,21.12
2019-04-25T12:47:50.759Z,21.20
2019-04-25T12:50:19.848Z,21.45
2019-04-25T12:52:48.729Z,21.50
2019-04-25T12:55:17.547Z,21.62
2019-04-25T12:57:49.431Z,21.81
2019-04-25T13:00:21.209Z,21.81
2019-04-25T13:02:49.913Z,21.69
2019-04-25T13:05:19.870Z,21.40
2019-04-25T13:07:48.803Z,21.32
2019-04-25T13:10:17.498Z,21.32
2019-04-25T13:12:46.269Z,21.19
2019-04-25T13:15:15.313Z,21.33
2019-04-25T13:17:44.115Z,21.57
2019-04-25T13:20:13.561Z,21.77
2019-04-25T13:22:43.272Z,21.78
2019-04-25T13:25:14.391Z,21.70
2019-04-25T13:27:49.448Z,21.56
2019-04-25T13:30:36.909Z,21.32
2019-04-25T13:33:36.948Z,21.10
2019-04-25T13:36:09.176Z,21.09
2019-04-25T13:38:37.951Z,21.23
2019-04-25T13:41:06.895Z,21.24
2019-04-25T13:43:35.823Z,21.35
2019-04-25T13:46:04.925Z,21.68
2019-04-25T13:48:34.677Z,22.00
2019-04-25T13:51:04.312Z,22.21
2019-04-25T13:53:33.554Z,22.18
2019-04-25T13:56:04.610Z,22.12
2019-04-25T13:58:34.297Z,22.23
2019-04-25T14:01:12.877Z,22.32
2019-04-25T14:03:36.241Z,22.45
2019-04-25T14:06:05.124Z,22.15
2019-04-25T14:08:33.790Z,22.15
2019-04-25T14:11:04.950Z,22.51
2019-04-25T14:13:33.064Z,22.83
2019-04-25T14:16:13.765Z,22.86
2019-04-25T14:19:13.064Z,22.64
2019-04-25T14:21:43.463Z,22.38
2019-04-25T14:24:20.205Z,22.47
2019-04-25T14:26:43.334Z,22.24
2019-04-25T14:29:14.132Z,22.19
2019-04-25T14:31:48.238Z,22.33
2019-04-25T14:34:13.390Z,22.64
2019-04-25T14:36:42.117Z,22.98
2019-04-25T14:39:12.403Z,22.77
2019-04-25T14:41:41.087Z,22.43
2019-04-25T14:44:10.116Z,22.27
2019-04-25T14:46:39.049Z,22.44
2019-04-25T14:49:07.797Z,22.25
2019-04-25T14:51:36.741Z,22.18
2019-04-25T14:54:08.471Z,22.06
2019-04-25T14:56:44.333Z,21.94
2019-04-25T14:59:14.169Z,22.11
2019-04-25T15:01:52.959Z,22.19
2019-04-25T15:05:13.175Z,22.28
2019-04-25T15:07:43.020Z,22.42
2019-04-25T15:10:12.044Z,22.59
2019-04-25T15:12:40.758Z,22.75
2019-04-25T15:15:09.697Z,22.69
2019-04-25T15:17:46.334Z,22.78
2019-04-25T15:20:09.079Z,22.73
2019-04-25T15:22:40.055Z,22.70
2019-04-25T15:25:08.808Z,22.51
2019-04-25T15:27:37.918Z,22.32
2019-04-25T15:30:08.950Z,22.09
2019-04-25T15:32:39.479Z,21.97
2019-04-25T15:35:11.122Z,21.87
2019-04-25T15:37:45.886Z,21.83
2019-04-25T15:40:37.420Z,21.99
2019-04-25T15:43:28.740Z,22.16
2019-04-25T15:46:27.738Z,22.02
2019-04-25T15:48:57.189Z,21.95
2019-04-25T15:51:28.242Z,21.95
2019-04-25T15:53:57.093Z,21.99
2019-04-25T15:56:27.492Z,22.01
2019-04-25T15:58:57.575Z,21.94
2019-04-25T16:01:28.331Z,21.83
2019-04-25T16:04:00.279Z,21.77
2019-04-25T16:06:29.850Z,21.70
2019-04-25T16:08:58.927Z,21.59
2019-04-25T16:11:28.444Z,21.64
2019-04-25T16:13:58.893Z,21.52
2019-04-25T16:16:28.294Z,21.36
2019-04-25T16:18:57.219Z,21.36
2019-04-25T16:21:26.558Z,21.34
2019-04-25T16:23:56.457Z,21.21
2019-04-25T16:26:25.414Z,21.22
2019-04-25T16:28:54.447Z,21.08
2019-04-25T16:31:25.101Z,20.99
2019-04-25T16:33:53.835Z,21.05
2019-04-25T16:36:23.052Z,20.81
2019-04-25T16:38:51.796Z,20.70
2019-04-25T16:41:20.983Z,20.83
2019-04-25T16:43:53.413Z,20.64
2019-04-25T16:46:23.697Z,20.72
2019-04-25T16:48:52.760Z,20.78
2019-04-25T16:51:25.385Z,20.65
2019-04-25T16:53:54.085Z,20.70
2019-04-25T16:56:22.806Z,20.77
2019-04-25T16:58:51.479Z,20.77
2019-04-25T17:01:20.485Z,20.74
2019-04-25T17:03:49.579Z,20.81
2019-04-25T17:06:18.817Z,20.83
2019-04-25T17:08:47.507Z,20.76
2019-04-25T17:11:17.081Z,20.76
2019-04-25T17:14:04.868Z,20.79
2019-04-25T17:16:58.137Z,20.81
2019-04-25T17:19:49.839Z,20.82
2019-04-25T17:22:18.605Z,20.65
2019-04-25T17:24:47.290Z,20.58
2019-04-25T17:27:16.787Z,20.59
2019-04-25T17:29:45.710Z,20.66
2019-04-25T17:32:22.661Z,20.72
2019-04-25T17:35:08.383Z,20.69
2019-04-25T17:37:41.228Z,20.69
2019-04-25T17:40:16.164Z,20.56
2019-04-25T17:42:44.921Z,20.50
2019-04-25T17:45:18.137Z,20.27
2019-04-25T17:47:54.732Z,20.30
2019-04-25T17:50:17.559Z,20.02
2019-04-25T17:52:46.518Z,20.06
2019-04-25T17:55:15.522Z,19.99
2019-04-25T17:57:47.022Z,20.02
2019-04-25T18:00:26.112Z,19.78
2019-04-25T18:02:58.930Z,19.62
2019-04-25T18:05:25.850Z,19.59
2019-04-25T18:07:54.560Z,19.78
2019-04-25T18:10:23.483Z,19.62
2019-04-25T18:12:52.230Z,19.86
2019-04-25T18:15:27.590Z,19.84
2019-04-25T18:17:56.545Z,19.77
2019-04-25T18:20:26.885Z,19.67
2019-04-25T18:23:03.253Z,19.72
2019-04-25T18:25:49.961Z,19.77
2019-04-25T18:28:22.228Z,19.67
2019-04-25T18:30:51.352Z,19.54
2019-04-25T18:33:29.772Z,19.55
2019-04-25T18:36:18.103Z,19.66
2019-04-25T18:38:56.753Z,19.52
2019-04-25T18:41:46.009Z,19.33
2019-04-25T18:44:15.296Z,19.12
2019-04-25T18:46:45.681Z,19.06
2019-04-25T18:49:14.461Z,18.91
2019-04-25T18:51:54.972Z,18.80
2019-04-25T18:54:43.165Z,18.72
2019-04-25T18:57:37.514Z,18.77
2019-04-25T19:00:31.981Z,18.66
2019-04-25T19:03:22.191Z,18.59
2019-04-25T19:05:58.100Z,18.58
2019-04-25T19:08:26.818Z,18.51
2019-04-25T19:10:55.614Z,18.51
2019-04-25T19:13:24.582Z,18.48
2019-04-25T19:15:53.750Z,18.38
2019-04-25T19:18:22.677Z,18.23
2019-04-25T19:20:52.355Z,18.12
2019-04-25T19:23:21.160Z,18.09
2019-04-25T19:25:50.343Z,18.10
2019-04-25T19:28:19.031Z,18.02
2019-04-25T19:30:48.024Z,17.99
2019-04-25T19:33:16.974Z,17.96
2019-04-25T19:35:45.778Z,17.89
2019-04-25T19:38:14.678Z,18.11
2019-04-25T19:41:01.357Z,18.31
2019-04-25T19:43:49.341Z,18.25
2019-04-25T19:46:18.263Z,18.14
2019-04-25T19:48:49.111Z,18.25
2019-04-25T19:51:18.094Z,18.28
2019-04-25T19:53:47.290Z,18.20
2019-04-25T19:56:16.101Z,18.08
2019-04-25T19:58:45.075Z,18.03
2019-04-25T20:01:16.955Z,18.18
2019-04-25T20:04:07.618Z,18.20
2019-04-25T20:06:53.897Z,18.04
2019-04-25T20:09:40.780Z,18.12
2019-04-25T20:12:09.596Z,18.14
2019-04-25T20:14:38.460Z,18.26
2019-04-25T20:17:07.251Z,18.13
2019-04-25T20:19:36.330Z,18.14
2019-04-25T20:22:05.265Z,18.16
2019-04-25T20:24:34.511Z,18.33
2019-04-25T20:27:03.251Z,18.37
2019-04-25T20:29:31.946Z,18.17
2019-04-25T20:32:00.625Z,18.09
2019-04-25T20:34:29.550Z,18.19
2019-04-25T20:36:58.488Z,18.21
2019-04-25T20:39:27.876Z,18.28
2019-04-25T20:41:56.916Z,18.26
2019-04-25T20:44:25.680Z,18.34
2019-04-25T20:46:55.170Z,18.20
2019-04-25T20:49:24.118Z,18.13
2019-04-25T20:51:53.124Z,18.25
2019-04-25T20:54:21.859Z,18.18
2019-04-25T20:56:50.936Z,18.10
2019-04-25T20:59:20.112Z,17.99
2019-04-25T21:01:49.731Z,18.06
2019-04-25T21:04:36.437Z,18.22
2019-04-25T21:07:05.176Z,18.00
2019-04-25T21:09:34.382Z,17.78
2019-04-25T21:12:03.301Z,17.96
2019-04-25T21:14:56.283Z,18.11
2019-04-25T21:17:50.984Z,18.04
2019-04-25T21:20:20.731Z,17.94
2019-04-25T21:22:50.506Z,17.74
2019-04-25T21:25:20.018Z,17.30
2019-04-25T21:27:48.705Z,16.82
2019-04-25T21:30:17.482Z,16.46
2019-04-25T21:32:55.726Z,16.08
2019-04-25T21:35:24.987Z,15.95
2019-04-25T21:37:53.738Z,15.77
2019-04-25T21:40:34.502Z,15.52
2019-04-25T21:43:09.615Z,15.40
2019-04-25T21:45:38.485Z,15.29
2019-04-25T21:48:07.388Z,15.22
2019-04-25T21:50:37.587Z,15.10
2019-04-25T21:53:06.672Z,15.03
2019-04-25T21:55:35.562Z,14.90
2019-04-25T21:58:04.674Z,14.86
2019-04-25T22:00:51.581Z,14.75
2019-04-25T22:03:22.739Z,14.74
2019-04-25T22:05:51.653Z,14.56
2019-04-25T22:08:20.393Z,14.59
2019-04-25T22:10:49.678Z,14.55
2019-04-25T22:13:18.722Z,14.52
2019-04-25T22:15:47.728Z,14.50
2019-04-25T22:18:16.584Z,14.31
2019-04-25T22:20:45.506Z,14.26
2019-04-25T22:23:14.412Z,14.33
2019-04-25T22:25:43.277Z,14.32
2019-04-25T22:28:12.169Z,14.29
2019-04-25T22:30:42.747Z,14.33
2019-04-25T22:33:33.483Z,14.12
2019-04-25T22:36:12.235Z,14.12
2019-04-25T22:38:40.911Z,14.04
2019-04-25T22:41:09.586Z,14.05
2019-04-25T22:43:40.796Z,14.00
2019-04-25T22:46:09.680Z,14.10
2019-04-25T22:48:49.444Z,14.08
2019-04-25T22:51:18.785Z,14.10
2019-04-25T22:53:47.825Z,14.07
2019-04-25T22:56:16.609Z,13.99
2019-04-25T22:58:45.434Z,14.01
2019-04-25T23:01:30.164Z,13.99
2019-04-25T23:04:02.733Z,13.97
2019-04-25T23:06:32.381Z,13.93
2019-04-25T23:09:01.839Z,13.96
2019-04-25T23:11:31.813Z,13.99
2019-04-25T23:14:00.829Z,13.95
2019-04-25T23:16:29.882Z,13.94
2019-04-25T23:18:58.807Z,13.94
2019-04-25T23:21:27.824Z,13.94
2019-04-25T23:23:56.859Z,13.94
2019-04-25T23:26:44.845Z,13.87
2019-04-25T23:29:15.097Z,13.94
2019-04-25T23:31:43.792Z,13.85
2019-04-25T23:34:12.878Z,13.73
2019-04-25T23:36:41.747Z,13.83
2019-04-25T23:39:11.232Z,13.86
2019-04-25T23:41:40.228Z,13.86
2019-04-25T23:44:09.087Z,13.80
2019-04-25T23:46:39.217Z,13.84
2019-04-25T23:49:08.813Z,13.78
2019-04-25T23:51:37.715Z,13.72
2019-04-25T23:54:07.487Z,13.66
2019-04-25T23:56:36.327Z,13.57
2019-04-25T23:59:05.318Z,13.57
